createdAt,value
2017-07-02T03:32:02.711Z,1.10
2017-07-02T03:34:30.344Z,1.10
2017-07-02T03:36:57.975Z,1.17
2017-07-02T03:39:26.017Z,1.10
2017-07-02T03:41:54.435Z,1.00
2017-07-02T03:44:22.058Z,1.30
2017-07-02T03:46:50.837Z,1.00
2017-07-02T03:49:19.259Z,1.50
2017-07-02T03:51:46.921Z,1.10
2017-07-02T03:54:14.973Z,1.00
2017-07-02T03:56:42.661Z,1.07
2017-07-02T03:59:10.278Z,1.13
2017-07-02T04:01:39.435Z,1.47
2017-07-02T04:04:07.074Z,1.40
2017-07-02T04:06:34.724Z,1.20
2017-07-02T04:09:02.721Z,1.40
2017-07-02T04:11:30.346Z,1.77
2017-07-02T04:13:57.987Z,1.20
2017-07-02T04:16:27.668Z,1.43
2017-07-02T04:18:55.325Z,1.30
2017-07-02T04:21:22.977Z,1.30
2017-07-02T04:23:50.968Z,1.20
2017-07-02T04:26:18.767Z,1.20
2017-07-02T04:28:46.407Z,1.50
2017-07-02T04:31:14.490Z,1.43
2017-07-02T04:33:42.127Z,1.50
2017-07-02T04:36:09.765Z,1.50
2017-07-02T04:38:37.819Z,2.00
2017-07-02T04:41:05.474Z,1.60
2017-07-02T04:43:33.107Z,2.20
2017-07-02T04:46:01.906Z,2.67
2017-07-02T04:48:29.579Z,2.40
2017-07-02T04:50:57.220Z,2.20
2017-07-02T04:53:25.226Z,2.07
2017-07-02T04:55:52.853Z,2.10
2017-07-02T04:58:21.277Z,2.87
2017-07-02T05:00:49.310Z,2.87
2017-07-02T05:03:17.712Z,3.30
2017-07-02T05:05:45.352Z,3.33
2017-07-02T05:08:14.120Z,3.80
2017-07-02T05:10:41.782Z,4.43
2017-07-02T05:13:09.777Z,3.73
2017-07-02T05:15:37.840Z,4.03
2017-07-02T05:18:06.238Z,4.37
2017-07-02T05:20:33.938Z,3.97
2017-07-02T05:23:02.055Z,3.40
2017-07-02T05:25:30.465Z,3.53
2017-07-02T05:27:58.104Z,3.77
2017-07-02T05:30:26.088Z,4.57
2017-07-02T05:32:53.734Z,4.30
2017-07-02T05:35:21.389Z,5.00
2017-07-02T05:37:49.444Z,4.70
2017-07-02T05:40:17.848Z,4.60
2017-07-02T05:42:45.481Z,5.47
2017-07-02T05:45:13.265Z,5.33
2017-07-02T05:47:41.676Z,4.07
2017-07-02T05:50:09.331Z,5.20
2017-07-02T05:52:37.070Z,4.93
2017-07-02T05:55:05.853Z,5.43
2017-07-02T05:57:34.291Z,5.00
2017-07-02T06:00:03.465Z,6.30
2017-07-02T06:02:31.088Z,6.80
2017-07-02T06:04:59.494Z,5.40
2017-07-02T06:07:27.143Z,5.70
2017-07-02T06:09:54.778Z,6.73
2017-07-02T06:12:23.190Z,7.00
2017-07-02T06:14:50.849Z,6.40
2017-07-02T06:17:18.512Z,6.77
2017-07-02T06:19:46.190Z,6.57
2017-07-02T06:22:14.227Z,6.17
2017-07-02T06:24:42.631Z,5.80
2017-07-02T06:27:10.978Z,6.30
2017-07-02T06:29:39.562Z,6.70
2017-07-02T06:32:07.992Z,6.47
2017-07-02T06:34:35.656Z,6.20
2017-07-02T06:37:03.334Z,6.40
2017-07-02T06:39:31.325Z,6.70
2017-07-02T06:41:59.123Z,7.30
2017-07-02T06:44:26.803Z,6.43
2017-07-02T06:46:55.071Z,6.47
2017-07-02T06:49:22.724Z,5.90
2017-07-02T06:51:50.362Z,6.37
2017-07-02T06:54:19.140Z,7.30
2017-07-02T06:56:46.790Z,6.47
2017-07-02T06:59:14.418Z,6.37
2017-07-02T07:01:42.435Z,5.93
2017-07-02T07:04:10.087Z,6.27
2017-07-02T07:06:37.731Z,6.27
2017-07-02T07:09:05.741Z,6.90
2017-07-02T07:11:33.370Z,5.20
2017-07-02T07:14:02.205Z,5.70
2017-07-02T07:16:30.159Z,5.80
2017-07-02T07:18:57.792Z,6.30
2017-07-02T07:21:25.422Z,6.33
2017-07-02T07:23:53.448Z,6.30
2017-07-02T07:26:21.863Z,5.63
2017-07-02T07:28:49.518Z,6.57
2017-07-02T07:31:17.571Z,6.37
2017-07-02T07:33:45.195Z,5.77
2017-07-02T07:36:12.816Z,5.37
2017-07-02T07:38:40.870Z,5.23
2017-07-02T07:41:08.523Z,5.03
2017-07-02T07:43:36.959Z,5.37
2017-07-02T07:46:05.063Z,5.80
2017-07-02T07:48:33.475Z,7.97
2017-07-02T07:51:01.151Z,24.33
2017-07-02T07:53:29.180Z,104.97
2017-07-02T07:55:57.594Z,75.10
2017-07-02T07:58:25.250Z,39.37
2017-07-02T08:00:53.234Z,28.20
2017-07-02T08:03:20.892Z,9.17
2017-07-02T08:05:48.546Z,22.90
2017-07-02T08:08:16.626Z,6.90
2017-07-02T08:10:44.275Z,6.97
2017-07-02T08:13:11.929Z,5.60
2017-07-02T08:15:39.591Z,14.13
2017-07-02T08:18:07.229Z,38.77
2017-07-02T08:20:36.010Z,21.47
2017-07-02T08:23:03.644Z,33.37
2017-07-02T08:25:31.303Z,40.20
2017-07-02T08:27:58.967Z,37.77
2017-07-02T08:30:26.613Z,18.83
2017-07-02T08:32:54.655Z,32.73
2017-07-02T08:35:22.296Z,21.93
2017-07-02T08:37:49.965Z,20.77
2017-07-02T08:40:18.768Z,45.10
2017-07-02T08:42:46.414Z,46.47
2017-07-02T08:45:14.082Z,33.80
2017-07-02T08:47:42.847Z,17.50
2017-07-02T08:50:10.509Z,15.67
2017-07-02T08:52:38.199Z,16.10
2017-07-02T08:55:06.181Z,8.30
2017-07-02T08:57:33.841Z,8.13
2017-07-02T09:00:01.503Z,7.17
2017-07-02T09:02:29.571Z,7.10
2017-07-02T09:04:57.247Z,5.20
2017-07-02T09:07:24.995Z,5.10
2017-07-02T09:09:53.045Z,4.30
2017-07-02T09:12:20.686Z,4.73
2017-07-02T09:14:48.352Z,5.43
2017-07-02T09:17:16.440Z,5.33
2017-07-02T09:19:44.099Z,5.27
2017-07-02T09:22:12.519Z,4.97
2017-07-02T09:24:40.554Z,5.10
2017-07-02T09:27:08.994Z,5.40
2017-07-02T09:29:36.709Z,6.20
2017-07-02T09:32:04.761Z,9.67
2017-07-02T09:34:33.235Z,9.57
2017-07-02T09:37:00.875Z,12.63
2017-07-02T09:39:28.891Z,7.20
2017-07-02T09:41:56.516Z,5.90
2017-07-02T09:44:24.155Z,5.50
2017-07-02T09:46:52.129Z,8.20
2017-07-02T09:49:19.770Z,5.63
2017-07-02T09:51:47.426Z,7.00
2017-07-02T09:54:15.944Z,5.87
2017-07-02T09:56:43.608Z,5.90
2017-07-02T09:59:11.307Z,5.13
2017-07-02T10:01:39.268Z,4.00
2017-07-02T10:04:07.704Z,4.40
2017-07-02T10:06:35.319Z,4.70
2017-07-02T10:09:03.743Z,4.77
2017-07-02T10:11:31.384Z,4.23
2017-07-02T10:13:59.414Z,4.30
2017-07-02T10:16:27.488Z,4.30
2017-07-02T10:18:55.106Z,4.37
2017-07-02T10:21:23.181Z,4.30
2017-07-02T10:23:50.804Z,4.40
2017-07-02T10:26:18.448Z,3.87
2017-07-02T10:28:47.654Z,4.13
2017-07-02T10:31:15.296Z,3.63
2017-07-02T10:33:42.976Z,4.10
2017-07-02T10:36:11.044Z,4.70
2017-07-02T10:38:38.745Z,4.00
2017-07-02T10:41:06.386Z,4.90
2017-07-02T10:43:34.096Z,5.57
2017-07-02T10:46:01.750Z,4.70
2017-07-02T10:48:29.449Z,5.30
2017-07-02T10:50:57.893Z,5.10
2017-07-02T10:53:25.575Z,5.77
2017-07-02T10:55:53.229Z,5.30
2017-07-02T10:58:21.243Z,6.07
2017-07-02T11:00:48.890Z,5.30
2017-07-02T11:03:17.317Z,5.90
2017-07-02T11:05:45.022Z,6.93
2017-07-02T11:08:12.664Z,5.80
2017-07-02T11:10:40.334Z,6.30
2017-07-02T11:13:07.997Z,6.80
2017-07-02T11:15:35.686Z,6.37
2017-07-02T11:18:04.114Z,5.50
2017-07-02T11:20:32.217Z,5.90
2017-07-02T11:22:59.880Z,6.60
2017-07-02T11:25:28.348Z,6.20
2017-07-02T11:27:56.009Z,6.03
2017-07-02T11:30:24.534Z,6.20
2017-07-02T11:32:52.200Z,5.63
2017-07-02T11:35:19.865Z,6.50
2017-07-02T11:37:47.553Z,6.77
2017-07-02T11:40:15.218Z,6.90
2017-07-02T11:42:43.207Z,7.73
2017-07-02T11:45:12.255Z,7.30
2017-07-02T11:47:39.962Z,7.17
2017-07-02T11:50:07.633Z,7.53
2017-07-02T11:52:35.384Z,6.70
2017-07-02T11:55:03.040Z,7.90
2017-07-02T11:57:31.191Z,7.67
2017-07-02T11:59:58.856Z,7.93
2017-07-02T12:02:26.507Z,7.43
2017-07-02T12:04:54.229Z,7.50
2017-07-02T12:07:21.885Z,7.03
2017-07-02T12:09:49.987Z,6.97
2017-07-02T12:12:17.691Z,6.73
2017-07-02T12:14:45.357Z,6.77
2017-07-02T12:17:13.022Z,7.87
2017-07-02T12:19:40.644Z,7.27
2017-07-02T12:22:08.294Z,7.70
2017-07-02T12:24:36.171Z,7.33
2017-07-02T12:27:03.971Z,7.37
2017-07-02T12:29:31.601Z,7.47
2017-07-02T12:31:59.743Z,7.40
2017-07-02T12:34:28.353Z,7.90
2017-07-02T12:36:56.032Z,7.53
2017-07-02T12:39:23.691Z,8.67
2017-07-02T12:41:51.338Z,8.87
2017-07-02T12:44:18.993Z,8.43
2017-07-02T12:46:46.647Z,9.23
2017-07-02T12:49:15.208Z,9.47
2017-07-02T12:51:42.891Z,8.50
2017-07-02T12:54:10.573Z,11.40
2017-07-02T12:56:38.229Z,8.73
2017-07-02T12:59:05.892Z,8.70
2017-07-02T13:01:33.585Z,7.90
2017-07-02T13:04:01.341Z,9.43
2017-07-02T13:06:29.715Z,8.70
2017-07-02T13:08:57.425Z,8.87
2017-07-02T13:11:25.137Z,8.73
2017-07-02T13:13:52.853Z,8.20
2017-07-02T13:16:21.746Z,8.30
2017-07-02T13:18:49.387Z,9.50
2017-07-02T13:21:17.832Z,8.30
2017-07-02T13:23:45.498Z,8.93
2017-07-02T13:26:13.179Z,9.83
2017-07-02T13:28:40.848Z,9.47
2017-07-02T13:31:08.525Z,10.80
2017-07-02T13:33:36.205Z,9.80
2017-07-02T13:36:04.643Z,10.13
2017-07-02T13:38:32.336Z,10.73
2017-07-02T13:41:00.010Z,10.10
2017-07-02T13:43:28.826Z,8.23
2017-07-02T13:45:57.502Z,9.60
2017-07-02T13:48:25.160Z,8.17
2017-07-02T13:50:52.898Z,8.80
2017-07-02T13:53:20.526Z,8.10
2017-07-02T13:55:48.189Z,8.23
2017-07-02T13:58:15.907Z,8.57
2017-07-02T14:00:44.347Z,8.50
2017-07-02T14:03:12.025Z,7.67
2017-07-02T14:05:39.684Z,7.20
2017-07-02T14:08:07.373Z,6.60
2017-07-02T14:10:35.056Z,7.00
2017-07-02T14:13:03.720Z,6.70
2017-07-02T14:15:32.121Z,6.00
2017-07-02T14:17:59.784Z,6.80
2017-07-02T14:20:27.452Z,6.83
2017-07-02T14:22:56.205Z,6.37
2017-07-02T14:25:24.624Z,6.97
2017-07-02T14:27:52.276Z,5.80
2017-07-02T14:30:19.959Z,6.80
2017-07-02T14:32:47.593Z,6.70
2017-07-02T14:35:15.366Z,5.00
2017-07-02T14:37:43.018Z,5.87
2017-07-02T14:40:10.907Z,5.77
2017-07-02T14:42:38.953Z,6.33
2017-07-02T14:45:06.610Z,4.90
2017-07-02T14:47:34.288Z,4.80
2017-07-02T14:50:02.075Z,6.37
2017-07-02T14:52:29.761Z,4.70
2017-07-02T14:54:57.489Z,4.60
2017-07-02T14:57:25.514Z,3.77
2017-07-02T14:59:53.922Z,3.30
2017-07-02T15:02:21.601Z,3.50
2017-07-02T15:04:49.650Z,3.20
2017-07-02T15:07:17.301Z,3.30
2017-07-02T15:09:44.971Z,3.37
2017-07-02T15:12:12.957Z,3.63
2017-07-02T15:14:40.614Z,3.37
2017-07-02T15:17:08.261Z,3.10
2017-07-02T15:19:35.913Z,3.23
2017-07-02T15:22:03.560Z,5.20
2017-07-02T15:24:32.303Z,2.93
2017-07-02T15:26:59.969Z,3.43
2017-07-02T15:29:27.625Z,3.17
2017-07-02T15:31:55.335Z,3.33
2017-07-02T15:34:23.747Z,3.37
2017-07-02T15:36:51.419Z,3.40
2017-07-02T15:39:19.096Z,3.37
2017-07-02T15:41:46.792Z,3.57
2017-07-02T15:44:14.472Z,3.63
2017-07-02T15:46:43.094Z,3.20
2017-07-02T15:49:10.762Z,3.40
2017-07-02T15:51:38.430Z,3.60
2017-07-02T15:54:06.100Z,3.40
2017-07-02T15:56:33.770Z,4.07
2017-07-02T15:59:01.446Z,4.20
2017-07-02T16:01:29.096Z,3.93
2017-07-02T16:03:56.767Z,4.23
2017-07-02T16:06:24.417Z,4.83
2017-07-02T16:08:52.317Z,4.17
2017-07-02T16:11:20.734Z,4.53
2017-07-02T16:13:48.402Z,5.20
2017-07-02T16:16:16.077Z,3.70
2017-07-02T16:18:43.713Z,3.77
2017-07-02T16:21:11.441Z,3.60
2017-07-02T16:23:39.868Z,4.10
2017-07-02T16:26:07.542Z,4.07
2017-07-02T16:28:35.264Z,3.83
2017-07-02T16:31:03.216Z,3.70
2017-07-02T16:33:30.919Z,4.10
2017-07-02T16:35:58.578Z,4.77
2017-07-02T16:38:26.266Z,22.83
2017-07-02T16:40:53.940Z,6.90
2017-07-02T16:43:21.606Z,5.07
2017-07-02T16:45:49.248Z,8.60
2017-07-02T16:48:17.252Z,25.63
2017-07-02T16:50:44.904Z,14.20
2017-07-02T16:53:12.583Z,9.40
2017-07-02T16:55:41.067Z,20.10
2017-07-02T16:58:09.526Z,24.13
2017-07-02T17:00:37.196Z,34.53
2017-07-02T17:03:04.854Z,25.97
2017-07-02T17:05:32.508Z,19.03
2017-07-02T17:08:00.153Z,18.80
2017-07-02T17:10:28.091Z,18.70
2017-07-02T17:12:55.757Z,71.23
2017-07-02T17:15:23.445Z,33.67
2017-07-02T17:17:51.133Z,42.83
2017-07-02T17:20:19.167Z,22.33
2017-07-02T17:22:46.861Z,18.43
2017-07-02T17:25:14.548Z,23.13
2017-07-02T17:27:42.997Z,21.90
2017-07-02T17:30:10.660Z,18.60
2017-07-02T17:32:38.324Z,25.40
2017-07-02T17:35:05.974Z,22.37
2017-07-02T17:37:33.636Z,32.10
2017-07-02T17:40:01.323Z,17.80
2017-07-02T17:42:29.085Z,10.13
2017-07-02T17:44:57.917Z,13.70
2017-07-02T17:47:25.620Z,10.30
2017-07-02T17:49:53.388Z,10.40
2017-07-02T17:52:21.414Z,21.43
2017-07-02T17:54:49.941Z,20.13
2017-07-02T17:57:17.634Z,10.83
2017-07-02T17:59:46.465Z,12.27
2017-07-02T18:02:14.127Z,12.50
2017-07-02T18:04:41.771Z,7.60
2017-07-02T18:07:09.839Z,14.83
2017-07-02T18:09:37.525Z,7.33
2017-07-02T18:12:05.186Z,8.50
2017-07-02T18:14:33.175Z,6.90
2017-07-02T18:17:00.831Z,8.73
2017-07-02T18:19:28.498Z,9.53
2017-07-02T18:21:56.267Z,6.87
2017-07-02T18:24:23.939Z,5.23
2017-07-02T18:26:51.682Z,4.97
2017-07-02T18:29:19.733Z,6.60
2017-07-02T18:31:47.404Z,5.70
2017-07-02T18:34:15.058Z,5.90
2017-07-02T18:36:43.111Z,4.90
2017-07-02T18:39:10.789Z,5.40
2017-07-02T18:41:38.473Z,5.20
2017-07-02T18:44:07.408Z,4.97
2017-07-02T18:46:35.831Z,4.90
2017-07-02T18:49:03.495Z,4.67
2017-07-02T18:51:31.273Z,4.97
2017-07-02T18:53:58.973Z,5.50
2017-07-02T18:56:27.437Z,5.13
2017-07-02T18:58:56.360Z,5.63
2017-07-02T19:01:24.780Z,5.07
2017-07-02T19:03:52.428Z,4.83
2017-07-02T19:06:20.479Z,5.70
2017-07-02T19:08:48.134Z,6.00
2017-07-02T19:11:15.812Z,6.73
2017-07-02T19:13:43.479Z,6.20
2017-07-02T19:16:11.532Z,6.00
2017-07-02T19:18:39.244Z,6.17
2017-07-02T19:21:06.937Z,6.80
2017-07-02T19:23:34.741Z,6.40
2017-07-02T19:26:02.441Z,6.00
2017-07-02T19:28:30.087Z,6.53
2017-07-02T19:30:57.877Z,6.10
2017-07-02T19:33:25.515Z,6.57
2017-07-02T19:35:53.263Z,6.87
2017-07-02T19:38:21.053Z,7.30
2017-07-02T19:40:48.721Z,6.53
2017-07-02T19:43:16.506Z,6.47
2017-07-02T19:45:45.205Z,6.17
2017-07-02T19:48:12.913Z,6.87
2017-07-02T19:50:40.557Z,7.13
2017-07-02T19:53:08.311Z,6.00
2017-07-02T19:55:35.997Z,8.80
2017-07-02T19:58:03.652Z,8.97
2017-07-02T20:00:31.627Z,15.53
2017-07-02T20:02:59.306Z,23.30
2017-07-02T20:05:27.032Z,18.60
2017-07-02T20:07:54.959Z,15.93
2017-07-02T20:10:22.656Z,32.80
2017-07-02T20:12:50.325Z,16.87
2017-07-02T20:15:18.368Z,28.43
2017-07-02T20:17:46.035Z,30.37
2017-07-02T20:20:14.480Z,32.77
2017-07-02T20:22:42.352Z,41.20
2017-07-02T20:25:10.047Z,16.30
2017-07-02T20:27:38.475Z,9.73
2017-07-02T20:30:06.264Z,16.10
2017-07-02T20:32:34.006Z,9.23
2017-07-02T20:35:01.668Z,8.93
2017-07-02T20:37:29.446Z,7.90
2017-07-02T20:39:57.109Z,7.20
2017-07-02T20:42:24.784Z,7.40
2017-07-02T20:44:53.172Z,11.07
2017-07-02T20:47:20.845Z,8.50
2017-07-02T20:49:48.479Z,6.87
2017-07-02T20:52:16.284Z,13.30
2017-07-02T20:54:43.962Z,10.20
2017-07-02T20:57:11.588Z,7.00
2017-07-02T20:59:39.441Z,9.93
2017-07-02T21:02:07.076Z,7.43
2017-07-02T21:04:34.742Z,7.60
2017-07-02T21:07:02.511Z,6.60
2017-07-02T21:09:30.167Z,8.63
2017-07-02T21:11:57.809Z,8.57
2017-07-02T21:14:25.602Z,9.30
2017-07-02T21:16:53.255Z,7.17
2017-07-02T21:19:20.887Z,7.50
2017-07-02T21:21:48.670Z,8.90
2017-07-02T21:24:16.301Z,9.70
2017-07-02T21:26:43.942Z,14.13
2017-07-02T21:29:12.489Z,14.33
2017-07-02T21:31:40.155Z,8.20
2017-07-02T21:34:07.808Z,10.67
2017-07-02T21:36:35.589Z,7.60
2017-07-02T21:39:03.208Z,6.80
2017-07-02T21:41:30.888Z,6.80
2017-07-02T21:43:58.687Z,5.43
2017-07-02T21:46:26.336Z,4.83
2017-07-02T21:48:53.981Z,4.83
2017-07-02T21:51:21.756Z,4.90
2017-07-02T21:53:49.541Z,3.90
2017-07-02T21:56:17.190Z,4.27
2017-07-02T21:58:44.856Z,4.43
2017-07-02T22:01:12.517Z,5.07
2017-07-02T22:03:40.197Z,3.97
2017-07-02T22:06:07.837Z,4.73
2017-07-02T22:08:35.484Z,4.83
2017-07-02T22:11:03.118Z,5.23
2017-07-02T22:13:31.168Z,5.40
2017-07-02T22:15:58.856Z,4.87
2017-07-02T22:18:26.513Z,5.50
2017-07-02T22:20:54.160Z,5.17
2017-07-02T22:23:21.801Z,5.13
2017-07-02T22:25:50.239Z,4.57
2017-07-02T22:28:17.880Z,4.50
